createdAt,value
2022-10-17T00:01:13.201Z,13.76
2022-10-17T00:03:41.780Z,13.73
2022-10-17T00:06:13.572Z,13.70
2022-10-17T00:08:43.215Z,13.67
2022-10-17T00:11:18.560Z,13.63
2022-10-17T00:13:47.595Z,13.60
2022-10-17T00:16:16.551Z,13.57
2022-10-17T00:18:45.124Z,13.54
2022-10-17T00:21:17.096Z,13.51
2022-10-17T00:23:45.647Z,13.48
2022-10-17T00:26:14.106Z,13.46
2022-10-17T00:28:42.576Z,13.43
2022-10-17T00:31:13.191Z,13.41
2022-10-17T00:33:42.758Z,13.40
2022-10-17T00:36:14.103Z,13.39
2022-10-17T00:38:44.162Z,13.37
2022-10-17T00:41:14.821Z,13.33
2022-10-17T00:43:58.318Z,13.30
2022-10-17T00:46:28.612Z,13.27
2022-10-17T00:48:58.374Z,13.24
2022-10-17T00:51:32.369Z,13.22
2022-10-17T00:54:01.906Z,13.20
2022-10-17T00:56:33.509Z,13.18
2022-10-17T00:59:02.017Z,13.16
2022-10-17T01:01:30.379Z,13.13
2022-10-17T01:03:58.889Z,13.10
2022-10-17T01:06:27.344Z,13.09
2022-10-17T01:08:56.094Z,13.06
2022-10-17T01:11:33.339Z,13.04
2022-10-17T01:14:04.437Z,13.01
2022-10-17T01:16:42.842Z,12.98
2022-10-17T01:19:31.914Z,12.94
2022-10-17T01:22:02.055Z,12.90
2022-10-17T01:24:45.377Z,12.88
2022-10-17T01:27:32.276Z,12.86
2022-10-17T01:30:26.916Z,12.83
2022-10-17T01:32:54.613Z,12.79
2022-10-17T01:35:25.879Z,12.74
2022-10-17T01:37:59.306Z,12.70
2022-10-17T01:40:29.647Z,12.66
2022-10-17T01:43:02.084Z,12.62
2022-10-17T01:45:33.607Z,12.59
2022-10-17T01:48:07.521Z,12.57
2022-10-17T01:50:40.294Z,12.55
2022-10-17T01:53:12.062Z,12.54
2022-10-17T01:55:42.025Z,12.54
2022-10-17T01:58:12.509Z,12.53
2022-10-17T02:00:42.205Z,12.51
2022-10-17T02:03:13.755Z,12.48
2022-10-17T02:05:43.552Z,12.45
2022-10-17T02:08:12.242Z,12.42
2022-10-17T02:10:46.777Z,12.40
2022-10-17T02:13:22.378Z,12.38
2022-10-17T02:16:01.439Z,12.36
2022-10-17T02:18:54.929Z,12.35
2022-10-17T02:21:29.953Z,12.34
2022-10-17T02:24:06.697Z,12.34
2022-10-17T02:26:43.192Z,12.33
2022-10-17T02:29:15.351Z,12.31
2022-10-17T02:31:47.399Z,12.29
2022-10-17T02:34:19.748Z,12.28
2022-10-17T02:36:51.038Z,12.25
2022-10-17T02:39:20.065Z,12.25
2022-10-17T02:41:49.161Z,12.24
2022-10-17T02:44:18.353Z,12.22
2022-10-17T02:46:54.347Z,12.21
2022-10-17T02:49:29.488Z,12.19
2022-10-17T02:52:01.260Z,12.18
2022-10-17T02:54:36.285Z,12.16
2022-10-17T02:57:10.394Z,12.14
2022-10-17T02:59:41.579Z,12.12
2022-10-17T03:02:10.747Z,12.10
2022-10-17T03:04:45.434Z,12.08
2022-10-17T03:07:14.409Z,12.07
2022-10-17T03:09:42.929Z,12.06
2022-10-17T03:12:11.285Z,12.04
2022-10-17T03:14:39.626Z,12.04
2022-10-17T03:17:07.918Z,12.04
2022-10-17T03:19:36.168Z,12.02
2022-10-17T03:22:04.649Z,12.01
2022-10-17T03:24:33.066Z,11.99
2022-10-17T03:27:01.413Z,11.96
2022-10-17T03:29:31.389Z,11.93
2022-10-17T03:32:00.679Z,11.91
2022-10-17T03:34:29.661Z,11.90
2022-10-17T03:36:58.091Z,11.89
2022-10-17T03:39:26.789Z,11.89
2022-10-17T03:41:55.762Z,11.89
2022-10-17T03:44:24.225Z,11.88
2022-10-17T03:46:54.220Z,11.87
2022-10-17T03:49:22.621Z,11.87
2022-10-17T03:51:51.050Z,11.85
2022-10-17T03:54:19.441Z,11.85
2022-10-17T03:56:47.898Z,11.84
2022-10-17T03:59:16.653Z,11.84
2022-10-17T04:01:45.272Z,11.84
2022-10-17T04:04:13.679Z,11.84
2022-10-17T04:06:42.568Z,11.84
2022-10-17T04:09:11.053Z,11.85
2022-10-17T04:11:39.501Z,11.85
2022-10-17T04:14:07.900Z,11.87
2022-10-17T04:16:36.265Z,11.88
2022-10-17T04:19:05.107Z,11.89
2022-10-17T04:21:33.818Z,11.89
2022-10-17T04:24:02.520Z,11.90
2022-10-17T04:26:31.335Z,11.89
2022-10-17T04:28:59.820Z,11.90
2022-10-17T04:31:31.004Z,11.89
2022-10-17T04:33:59.855Z,11.91
2022-10-17T04:36:28.755Z,11.91
2022-10-17T04:38:57.110Z,11.90
2022-10-17T04:41:26.189Z,11.90
2022-10-17T04:43:55.092Z,11.89
2022-10-17T04:46:23.596Z,11.88
2022-10-17T04:48:53.408Z,11.86
2022-10-17T04:51:26.518Z,11.84
2022-10-17T04:53:55.764Z,11.82
2022-10-17T04:56:25.372Z,11.81
2022-10-17T04:58:53.758Z,11.81
2022-10-17T05:01:23.321Z,11.80
2022-10-17T05:03:52.217Z,11.80
2022-10-17T05:06:24.610Z,11.79
2022-10-17T05:08:55.928Z,11.79
2022-10-17T05:11:26.016Z,11.80
2022-10-17T05:13:56.670Z,11.81
2022-10-17T05:16:25.532Z,11.82
2022-10-17T05:18:55.263Z,11.84
2022-10-17T05:21:25.170Z,11.85
2022-10-17T05:23:56.512Z,11.88
2022-10-17T05:26:26.284Z,11.89
2022-10-17T05:28:55.624Z,11.91
2022-10-17T05:31:24.192Z,11.94
2022-10-17T05:33:52.685Z,11.94
2022-10-17T05:36:22.155Z,11.94
2022-10-17T05:38:50.942Z,11.94
2022-10-17T05:41:20.751Z,11.96
2022-10-17T05:43:49.632Z,11.98
2022-10-17T05:46:18.193Z,12.00
2022-10-17T05:48:46.992Z,12.03
2022-10-17T05:51:15.676Z,12.06
2022-10-17T05:53:44.066Z,12.09
2022-10-17T05:56:14.335Z,12.11
2022-10-17T05:58:56.197Z,12.12
2022-10-17T06:01:27.430Z,12.13
2022-10-17T06:04:00.184Z,12.15
2022-10-17T06:06:34.870Z,12.16
2022-10-17T06:09:04.218Z,12.17
2022-10-17T06:11:36.713Z,12.18
2022-10-17T06:14:09.494Z,12.21
2022-10-17T06:16:38.752Z,12.24
2022-10-17T06:19:07.800Z,12.26
2022-10-17T06:21:38.265Z,12.28
2022-10-17T06:24:09.362Z,12.32
2022-10-17T06:26:38.205Z,12.36
2022-10-17T06:29:15.531Z,12.39
2022-10-17T06:31:44.467Z,12.42
2022-10-17T06:34:16.421Z,12.45
2022-10-17T06:36:46.359Z,12.48
2022-10-17T06:39:15.160Z,12.51
2022-10-17T06:41:44.230Z,12.54
2022-10-17T06:44:13.015Z,12.58
2022-10-17T06:46:44.379Z,12.62
2022-10-17T06:49:13.122Z,12.66
2022-10-17T06:51:41.739Z,12.69
2022-10-17T06:54:10.488Z,12.72
2022-10-17T06:56:38.824Z,12.76
2022-10-17T06:59:09.158Z,12.79
2022-10-17T07:01:41.829Z,12.83
2022-10-17T07:04:15.933Z,12.88
2022-10-17T07:06:45.313Z,12.93
2022-10-17T07:09:14.052Z,12.98
2022-10-17T07:11:42.702Z,13.04
2022-10-17T07:14:11.181Z,13.11
2022-10-17T07:16:39.665Z,13.18
2022-10-17T07:19:08.281Z,13.26
2022-10-17T07:21:39.131Z,13.34
2022-10-17T07:24:08.239Z,13.42
2022-10-17T07:26:38.109Z,13.48
2022-10-17T07:29:07.114Z,13.57
2022-10-17T07:31:35.920Z,13.66
2022-10-17T07:34:05.580Z,13.75
2022-10-17T07:36:34.332Z,13.84
2022-10-17T07:39:04.473Z,13.91
2022-10-17T07:41:33.808Z,14.00
2022-10-17T07:44:05.236Z,14.06
2022-10-17T07:46:34.351Z,14.14
2022-10-17T07:49:02.777Z,14.23
2022-10-17T07:51:33.624Z,14.31
2022-10-17T07:54:05.658Z,14.39
2022-10-17T07:56:34.217Z,14.47
2022-10-17T07:59:05.316Z,14.58
2022-10-17T08:01:37.409Z,14.70
2022-10-17T08:04:06.241Z,14.88
2022-10-17T08:06:34.956Z,15.12
2022-10-17T08:09:03.828Z,15.36
2022-10-17T08:11:32.639Z,15.50
2022-10-17T08:14:07.764Z,15.63
2022-10-17T08:16:36.950Z,15.73
2022-10-17T08:19:12.740Z,15.81
2022-10-17T08:21:43.002Z,15.90
2022-10-17T08:24:14.221Z,15.98
2022-10-17T08:26:49.573Z,16.09
2022-10-17T08:29:20.247Z,16.18
2022-10-17T08:31:52.412Z,16.23
2022-10-17T08:34:25.464Z,16.27
2022-10-17T08:36:54.613Z,16.35
2022-10-17T08:39:23.221Z,16.44
2022-10-17T08:42:05.887Z,16.57
2022-10-17T08:44:46.226Z,16.83
2022-10-17T08:47:20.025Z,17.18
2022-10-17T08:49:55.192Z,17.55
2022-10-17T08:52:30.555Z,17.97
2022-10-17T08:54:59.484Z,18.43
2022-10-17T08:57:28.769Z,18.82
2022-10-17T08:59:57.720Z,19.19
2022-10-17T09:02:39.560Z,19.57
2022-10-17T09:05:35.975Z,19.95
2022-10-17T09:08:14.774Z,20.33
2022-10-17T09:10:53.033Z,20.65
2022-10-17T09:13:33.002Z,20.99
2022-10-17T09:16:11.615Z,21.28
2022-10-17T09:18:42.612Z,21.50
2022-10-17T09:21:21.427Z,21.76
2022-10-17T09:23:59.656Z,21.97
2022-10-17T09:26:39.558Z,22.27
2022-10-17T09:29:17.782Z,22.47
2022-10-17T09:31:49.403Z,22.63
2022-10-17T09:34:17.922Z,22.83
2022-10-17T09:36:46.251Z,22.97
2022-10-17T09:39:19.557Z,22.97
2022-10-17T09:41:51.133Z,22.90
2022-10-17T09:44:22.259Z,22.75
2022-10-17T09:47:06.093Z,22.55
2022-10-17T09:49:38.978Z,22.32
2022-10-17T09:52:14.554Z,22.16
2022-10-17T09:54:45.713Z,22.00
2022-10-17T09:57:15.553Z,21.80
2022-10-17T09:59:47.203Z,21.65
2022-10-17T10:02:18.787Z,21.56
2022-10-17T10:05:04.696Z,21.48
2022-10-17T10:07:37.747Z,21.39
2022-10-17T10:10:08.608Z,21.28
2022-10-17T10:12:38.851Z,21.20
2022-10-17T10:15:32.038Z,21.15
2022-10-17T10:18:01.482Z,21.07
2022-10-17T10:20:33.749Z,20.94
2022-10-17T10:23:23.707Z,20.88
2022-10-17T10:25:59.675Z,20.86
2022-10-17T10:28:29.768Z,20.84
2022-10-17T10:31:00.475Z,20.82
2022-10-17T10:33:34.311Z,20.78
2022-10-17T10:36:05.956Z,20.76
2022-10-17T10:38:34.949Z,20.76
2022-10-17T10:41:07.559Z,20.76
2022-10-17T10:43:40.017Z,20.74
2022-10-17T10:46:19.732Z,20.74
2022-10-17T10:48:54.015Z,20.76
2022-10-17T10:51:28.300Z,20.79
2022-10-17T10:54:05.196Z,20.81
2022-10-17T10:56:43.590Z,20.83
2022-10-17T10:59:25.445Z,20.87
2022-10-17T11:01:58.013Z,20.91
2022-10-17T11:04:31.595Z,20.95
2022-10-17T11:07:08.039Z,21.01
2022-10-17T11:09:46.921Z,21.07
2022-10-17T11:12:20.943Z,21.12
2022-10-17T11:14:53.761Z,21.10
2022-10-17T11:17:42.495Z,21.07
2022-10-17T11:20:33.914Z,21.06
2022-10-17T11:23:15.489Z,21.06
2022-10-17T11:25:44.442Z,21.05
2022-10-17T11:28:16.935Z,21.06
2022-10-17T11:30:51.707Z,21.08
2022-10-17T11:33:30.394Z,21.11
2022-10-17T11:36:07.160Z,21.12
2022-10-17T11:38:45.680Z,21.11
2022-10-17T11:41:17.466Z,21.08
2022-10-17T11:43:51.921Z,21.04
2022-10-17T11:46:23.614Z,20.99
2022-10-17T11:49:12.357Z,20.98
2022-10-17T11:52:05.416Z,21.00
2022-10-17T11:54:38.144Z,21.02
2022-10-17T11:57:38.497Z,21.06
2022-10-17T12:00:26.494Z,21.10
2022-10-17T12:03:15.963Z,21.15
2022-10-17T12:05:52.635Z,21.19
2022-10-17T12:08:30.556Z,21.21
2022-10-17T12:11:03.948Z,21.22
2022-10-17T12:13:56.411Z,21.24
2022-10-17T12:16:45.795Z,21.25
2022-10-17T12:19:36.854Z,21.29
2022-10-17T12:22:26.577Z,21.31
2022-10-17T12:25:00.693Z,21.30
2022-10-17T12:27:45.838Z,21.28
2022-10-17T12:30:25.253Z,21.25
2022-10-17T12:33:07.388Z,21.28
2022-10-17T12:35:39.361Z,21.30
2022-10-17T12:38:21.388Z,21.30
2022-10-17T12:41:06.192Z,21.33
2022-10-17T12:43:52.586Z,21.37
2022-10-17T12:46:57.478Z,21.38
2022-10-17T12:49:39.449Z,21.36
2022-10-17T12:52:23.336Z,21.34
2022-10-17T12:55:13.512Z,21.33
2022-10-17T12:57:56.184Z,21.33
2022-10-17T13:00:33.015Z,21.35
2022-10-17T13:03:12.541Z,21.39
2022-10-17T13:05:48.219Z,21.40
2022-10-17T13:08:20.263Z,21.40
2022-10-17T13:10:52.545Z,21.38
2022-10-17T13:13:25.447Z,21.35
2022-10-17T13:15:56.183Z,21.33
2022-10-17T13:18:30.019Z,21.32
2022-10-17T13:21:02.601Z,21.31
2022-10-17T13:23:35.304Z,21.30
2022-10-17T13:26:12.288Z,21.28
2022-10-17T13:28:42.203Z,21.24
2022-10-17T13:31:47.123Z,21.21
2022-10-17T13:34:35.608Z,21.20
2022-10-17T13:37:06.315Z,21.19
2022-10-17T13:39:55.156Z,21.19
2022-10-17T13:42:29.905Z,21.19
2022-10-17T13:44:59.370Z,21.19
2022-10-17T13:47:31.668Z,21.19
2022-10-17T13:50:01.085Z,21.19
2022-10-17T13:52:31.195Z,21.17
2022-10-17T13:55:16.567Z,21.16
2022-10-17T13:57:48.465Z,21.14
2022-10-17T14:00:20.645Z,21.13
2022-10-17T14:02:49.752Z,21.12
2022-10-17T14:05:20.319Z,21.11
2022-10-17T14:08:13.374Z,21.11
2022-10-17T14:10:45.996Z,21.10
2022-10-17T14:13:22.507Z,21.10
2022-10-17T14:15:54.926Z,21.09
2022-10-17T14:18:35.778Z,21.09
2022-10-17T14:24:15.473Z,21.05
2022-10-17T14:26:59.189Z,21.01
2022-10-17T14:29:29.628Z,20.99
2022-10-17T14:32:13.043Z,20.96
2022-10-17T14:34:41.641Z,20.93
2022-10-17T14:37:11.520Z,20.89
2022-10-17T14:39:40.789Z,20.86
2022-10-17T14:42:19.147Z,20.83
2022-10-17T14:44:49.844Z,20.79
2022-10-17T14:47:42.161Z,20.75
2022-10-17T14:50:26.067Z,20.68
2022-10-17T14:53:04.455Z,20.64
2022-10-17T14:55:35.302Z,20.60
2022-10-17T14:58:16.654Z,20.57
2022-10-17T15:00:45.268Z,20.54
2022-10-17T15:03:14.001Z,20.50
2022-10-17T15:05:42.573Z,20.46
2022-10-17T15:08:13.981Z,20.43
2022-10-17T15:10:43.289Z,20.40
2022-10-17T15:13:27.594Z,20.38
2022-10-17T15:15:58.725Z,20.34
2022-10-17T15:18:27.478Z,20.30
2022-10-17T15:21:04.761Z,20.26
2022-10-17T15:23:42.016Z,20.21
2022-10-17T15:26:14.906Z,20.15
2022-10-17T15:28:43.836Z,20.11
2022-10-17T15:31:14.555Z,20.07
2022-10-17T15:33:43.801Z,20.02
2022-10-17T15:36:20.431Z,19.98
2022-10-17T15:38:49.680Z,19.93
2022-10-17T15:41:18.423Z,19.87
2022-10-17T15:43:47.846Z,19.79
2022-10-17T15:46:18.733Z,19.72
2022-10-17T15:48:47.988Z,19.64
2022-10-17T15:51:16.844Z,19.57
2022-10-17T15:53:45.180Z,19.51
2022-10-17T15:56:22.189Z,19.44
2022-10-17T15:58:50.949Z,19.38
2022-10-17T16:01:23.712Z,19.33
2022-10-17T16:03:52.277Z,19.28
2022-10-17T16:06:23.979Z,19.24
2022-10-17T16:08:53.144Z,19.19
2022-10-17T16:11:26.527Z,19.13
2022-10-17T16:13:56.759Z,19.06
2022-10-17T16:16:25.131Z,19.01
2022-10-17T16:18:53.621Z,18.96
2022-10-17T16:21:25.124Z,18.92
2022-10-17T16:23:53.779Z,18.88
2022-10-17T16:26:27.189Z,18.84
2022-10-17T16:28:57.543Z,18.78
2022-10-17T16:31:28.906Z,18.73
2022-10-17T16:33:58.918Z,18.68
2022-10-17T16:36:27.571Z,18.63
2022-10-17T16:38:55.903Z,18.59
2022-10-17T16:41:26.828Z,18.54
2022-10-17T16:43:57.119Z,18.50
2022-10-17T16:46:27.406Z,18.46
2022-10-17T16:48:57.513Z,18.41
2022-10-17T16:51:25.964Z,18.37
2022-10-17T16:53:59.515Z,18.33
2022-10-17T16:56:31.072Z,18.30
2022-10-17T16:58:59.878Z,18.25
2022-10-17T17:01:29.181Z,18.22
2022-10-17T17:03:57.544Z,18.18
2022-10-17T17:06:27.583Z,18.14
2022-10-17T17:08:57.344Z,18.09
2022-10-17T17:11:27.728Z,18.06
2022-10-17T17:13:57.173Z,18.01
2022-10-17T17:16:27.838Z,17.97
2022-10-17T17:18:57.611Z,17.93
2022-10-17T17:21:26.477Z,17.89
2022-10-17T17:23:57.683Z,17.85
2022-10-17T17:26:27.490Z,17.81
2022-10-17T17:28:58.409Z,17.77
2022-10-17T17:31:30.451Z,17.72
2022-10-17T17:33:59.278Z,17.68
2022-10-17T17:36:29.186Z,17.64
2022-10-17T17:39:03.101Z,17.61
2022-10-17T17:41:31.936Z,17.55
2022-10-17T17:44:01.368Z,17.51
2022-10-17T17:46:30.170Z,17.47
2022-10-17T17:48:58.798Z,17.42
2022-10-17T17:51:29.453Z,17.39
2022-10-17T17:53:58.683Z,17.35
2022-10-17T17:56:29.190Z,17.31
2022-10-17T17:58:59.184Z,17.27
2022-10-17T18:01:30.812Z,17.24
2022-10-17T18:04:00.027Z,17.20
2022-10-17T18:06:29.129Z,17.16
2022-10-17T18:08:58.673Z,17.12
2022-10-17T18:11:27.621Z,17.09
2022-10-17T18:13:56.719Z,17.06
2022-10-17T18:16:26.009Z,17.02
2022-10-17T18:18:54.667Z,17.00
2022-10-17T18:21:23.460Z,16.96
2022-10-17T18:23:52.313Z,16.91
2022-10-17T18:26:21.135Z,16.88
2022-10-17T18:28:50.266Z,16.85
2022-10-17T18:31:23.681Z,16.82
2022-10-17T18:33:53.377Z,16.79
2022-10-17T18:36:22.332Z,16.76
2022-10-17T18:38:50.868Z,16.74
2022-10-17T18:41:21.148Z,16.72
2022-10-17T18:43:50.980Z,16.70
2022-10-17T18:46:21.724Z,16.67
2022-10-17T18:48:51.071Z,16.63
2022-10-17T18:51:20.740Z,16.59
2022-10-17T18:53:51.139Z,16.56
2022-10-17T18:56:22.075Z,16.53
2022-10-17T18:58:51.249Z,16.49
2022-10-17T19:01:22.205Z,16.45
2022-10-17T19:03:52.478Z,16.41
2022-10-17T19:06:23.182Z,16.37
2022-10-17T19:08:51.811Z,16.34
2022-10-17T19:11:22.765Z,16.31
2022-10-17T19:13:51.950Z,16.27
2022-10-17T19:16:23.137Z,16.23
2022-10-17T19:18:52.264Z,16.17
2022-10-17T19:21:22.894Z,16.12
2022-10-17T19:23:53.904Z,16.08
2022-10-17T19:26:23.106Z,16.03
2022-10-17T19:28:53.546Z,15.99
2022-10-17T19:31:26.756Z,15.96
2022-10-17T19:33:56.460Z,15.92
2022-10-17T19:36:29.064Z,15.87
2022-10-17T19:39:01.960Z,15.82
2022-10-17T19:41:30.528Z,15.77
2022-10-17T19:43:59.337Z,15.73
2022-10-17T19:46:29.296Z,15.69
2022-10-17T19:48:57.968Z,15.65
2022-10-17T19:51:27.018Z,15.60
2022-10-17T19:53:59.722Z,15.56
2022-10-17T19:56:30.354Z,15.52
2022-10-17T19:58:59.349Z,15.48
2022-10-17T20:01:30.319Z,15.44
2022-10-17T20:04:01.536Z,15.40
2022-10-17T20:06:30.111Z,15.36
2022-10-17T20:08:59.051Z,15.32
2022-10-17T20:11:28.932Z,15.29
2022-10-17T20:13:58.854Z,15.25
2022-10-17T20:16:31.045Z,15.21
2022-10-17T20:19:06.226Z,15.17
2022-10-17T20:21:36.324Z,15.14
2022-10-17T20:24:09.942Z,15.11
2022-10-17T20:26:41.174Z,15.08
2022-10-17T20:29:15.341Z,15.05
2022-10-17T20:31:43.443Z,15.01
2022-10-17T20:34:17.149Z,14.97
2022-10-17T20:36:46.479Z,14.93
2022-10-17T20:39:16.898Z,14.89
2022-10-17T20:41:47.052Z,14.86
2022-10-17T20:44:16.046Z,14.82
2022-10-17T20:47:00.559Z,14.78
2022-10-17T20:49:31.195Z,14.75
2022-10-17T20:52:01.225Z,14.71
2022-10-17T20:54:29.829Z,14.68
2022-10-17T20:57:01.200Z,14.66
2022-10-17T20:59:34.545Z,14.62
2022-10-17T21:02:04.072Z,14.59
2022-10-17T21:04:45.888Z,14.55
2022-10-17T21:07:16.175Z,14.50
2022-10-17T21:09:45.764Z,14.45
2022-10-17T21:12:30.892Z,14.41
2022-10-17T21:15:07.186Z,14.36
2022-10-17T21:17:36.849Z,14.33
2022-10-17T21:20:07.843Z,14.30
2022-10-17T21:22:36.392Z,14.28
2022-10-17T21:25:09.112Z,14.24
2022-10-17T21:27:37.917Z,14.21
2022-10-17T21:30:14.125Z,14.18
2022-10-17T21:32:53.529Z,14.14
2022-10-17T21:35:26.177Z,14.11
2022-10-17T21:37:54.942Z,14.08
2022-10-17T21:40:23.853Z,14.04
2022-10-17T21:42:52.466Z,14.00
2022-10-17T21:45:25.835Z,13.97
2022-10-17T21:48:13.149Z,13.93
2022-10-17T21:50:45.483Z,13.90
2022-10-17T21:53:14.039Z,13.87
2022-10-17T21:55:43.431Z,13.84
2022-10-17T21:58:11.817Z,13.81
2022-10-17T22:00:44.840Z,13.78
2022-10-17T22:03:16.579Z,13.75
2022-10-17T22:05:48.109Z,13.72
2022-10-17T22:08:16.671Z,13.69
2022-10-17T22:10:45.503Z,13.66
2022-10-17T22:13:14.200Z,13.63
2022-10-17T22:15:43.312Z,13.61
2022-10-17T22:18:11.727Z,13.59
2022-10-17T22:20:40.435Z,13.57
2022-10-17T22:23:08.971Z,13.55
2022-10-17T22:25:37.460Z,13.53
2022-10-17T22:28:06.008Z,13.50
2022-10-17T22:30:34.549Z,13.48
2022-10-17T22:33:05.483Z,13.47
2022-10-17T22:35:34.945Z,13.45
2022-10-17T22:38:03.559Z,13.43
2022-10-17T22:40:31.973Z,13.40
2022-10-17T22:43:07.786Z,13.37
2022-10-17T22:45:36.572Z,13.35
2022-10-17T22:48:06.414Z,13.34
2022-10-17T22:50:37.361Z,13.32
2022-10-17T22:53:06.255Z,13.30
2022-10-17T22:55:34.626Z,13.28
2022-10-17T22:58:04.307Z,13.26
2022-10-17T23:00:32.934Z,13.25
2022-10-17T23:03:02.299Z,13.24
2022-10-17T23:05:30.606Z,13.21
2022-10-17T23:08:01.380Z,13.20
2022-10-17T23:10:29.725Z,13.18
2022-10-17T23:12:58.307Z,13.16
2022-10-17T23:15:27.093Z,13.15
2022-10-17T23:17:55.829Z,13.14
2022-10-17T23:20:24.977Z,13.12
2022-10-17T23:22:54.739Z,13.11
2022-10-17T23:25:23.381Z,13.09
2022-10-17T23:27:51.857Z,13.08
2022-10-17T23:30:20.484Z,13.06
2022-10-17T23:32:49.540Z,13.05
2022-10-17T23:35:18.326Z,13.04
2022-10-17T23:37:47.018Z,13.03
2022-10-17T23:40:16.767Z,13.02
2022-10-17T23:42:45.414Z,13.00
2022-10-17T23:45:15.045Z,13.00
2022-10-17T23:47:49.754Z,12.99
2022-10-17T23:50:19.015Z,12.97
2022-10-17T23:52:47.848Z,12.96
2022-10-17T23:55:16.758Z,12.95
2022-10-17T23:57:45.721Z,12.93
